Time;durP1;ratioP1;P1;durP2;ratioP2;P2;SDS_P1;SDS_P2;PMS_P1;PMS_P2;Temp;Humidity;BMP_temperature;BMP_pressure;BME280_temperature;BME280_humidity;BME280_pressure;Samples;Min_cycle;Max_cycle;Signal;HPM_P1;HPM_P2
2022/11/05 09:29:58;;;;;;;5.20;2.28;;;16.50;84.90;;;;;;5032741;28;20072;-79
2022/11/05 09:32:24;;;;;;;5.60;2.33;;;16.50;84.50;;;;;;5033101;28;20037;-77
2022/11/05 09:34:49;;;;;;;7.68;3.03;;;16.60;84.10;;;;;;5032603;28;20061;-76
2022/11/05 09:37:15;;;;;;;6.80;2.10;;;16.70;83.90;;;;;;5015241;28;20029;-79
2022/11/05 09:39:41;;;;;;;8.95;2.20;;;16.70;83.70;;;;;;5015510;28;20409;-78
2022/11/05 09:42:12;;;;;;;6.60;2.25;;;16.80;83.50;;;;;;5018956;28;20041;-78
2022/11/05 09:44:53;;;;;;;8.57;2.28;;;16.80;83.30;;;;;;5037604;28;20060;-79
2022/11/05 09:47:37;;;;;;;7.50;2.58;;;16.80;83.10;;;;;;5019386;28;20493;-77
2022/11/05 09:50:07;;;;;;;6.47;3.00;;;16.80;83.00;;;;;;5018995;28;20399;-78
2022/11/05 09:52:33;;;;;;;7.82;2.70;;;16.80;82.70;;;;;;5036313;28;20124;-79
2022/11/05 09:55:01;;;;;;;5.47;2.47;;;16.90;82.80;;;;;;5036496;28;20370;-78
2022/11/05 09:57:31;;;;;;;7.43;2.83;;;17.00;82.60;;;;;;5036366;28;20389;-78
2022/11/05 10:00:00;;;;;;;6.35;2.72;;;17.00;82.40;;;;;;5036375;28;20029;-79
2022/11/05 10:02:36;;;;;;;5.00;2.10;;;17.10;82.20;;;;;;5036318;28;20100;-78
2022/11/05 10:05:06;;;;;;;5.90;2.30;;;17.00;81.60;;;;;;5018235;28;20029;-77
2022/11/05 10:07:50;;;;;;;7.85;3.10;;;17.10;81.80;;;;;;5018440;28;20080;-79
2022/11/05 10:10:38;;;;;;;8.52;2.45;;;17.10;81.60;;;;;;5018498;28;20039;-76
2022/11/05 10:13:27;;;;;;;6.35;2.03;;;17.10;81.60;;;;;;5036202;28;20489;-78
2022/11/05 10:16:23;;;;;;;7.28;2.10;;;17.10;81.30;;;;;;5035305;28;20045;-78
2022/11/05 10:18:56;;;;;;;6.43;2.00;;;17.20;81.30;;;;;;5018821;28;20025;-69
2022/11/05 10:21:21;;;;;;;6.30;2.15;;;17.20;81.00;;;;;;5036157;28;20056;-78
2022/11/05 10:23:47;;;;;;;6.35;1.95;;;17.30;80.90;;;;;;5036140;28;20063;-80
2022/11/05 10:26:18;;;;;;;4.65;2.08;;;17.20;80.90;;;;;;5035917;28;20036;-76
2022/11/05 10:28:44;;;;;;;6.65;2.05;;;17.30;81.00;;;;;;5047471;28;20052;-78
2022/11/05 10:31:19;;;;;;;8.25;2.00;;;17.30;80.90;;;;;;5056295;28;20028;-78
2022/11/05 10:34:00;;;;;;;4.38;1.80;;;17.40;80.80;;;;;;5054664;28;20063;-77
2022/11/05 10:36:30;;;;;;;8.23;2.08;;;17.40;80.70;;;;;;5054522;28;20037;-79
2022/11/05 10:39:01;;;;;;;6.03;2.03;;;17.40;80.40;;;;;;5054633;28;20053;-79
2022/11/05 10:41:41;;;;;;;5.88;1.60;;;17.50;80.30;;;;;;5055640;28;20052;-77
2022/11/05 10:44:37;;;;;;;4.40;1.70;;;17.50;80.00;;;;;;5055626;28;20052;-78
2022/11/05 10:47:30;;;;;;;4.35;1.60;;;17.50;80.00;;;;;;5055641;28;20385;-78
2022/11/05 10:49:58;;;;;;;7.00;2.15;;;17.50;79.50;;;;;;5054596;28;20180;-77
2022/11/05 10:52:38;;;;;;;8.43;1.92;;;17.50;79.30;;;;;;5055487;28;20397;-79
2022/11/05 10:55:19;;;;;;;3.55;1.45;;;17.50;79.20;;;;;;5055430;28;20033;-78
2022/11/05 10:57:48;;;;;;;2.28;1.25;;;17.60;79.10;;;;;;5055448;28;20060;-77
2022/11/05 11:00:14;;;;;;;2.70;1.38;;;17.60;78.80;;;;;;5055536;28;20041;-77
2022/11/05 11:02:41;;;;;;;3.53;1.73;;;17.70;78.10;;;;;;5054194;28;20047;-77
2022/11/05 11:05:09;;;;;;;9.95;1.92;;;17.70;77.80;;;;;;5053992;28;20033;-77
2022/11/05 11:07:35;;;;;;;5.30;1.48;;;17.80;77.30;;;;;;5053922;28;20037;-78
2022/11/05 11:10:02;;;;;;;5.18;1.45;;;17.80;77.30;;;;;;5053956;28;20035;-78
2022/11/05 11:12:36;;;;;;;4.30;1.73;;;17.90;77.20;;;;;;5055341;28;20528;-78
2022/11/05 11:15:04;;;;;;;6.90;1.50;;;17.90;76.80;;;;;;5055345;28;20440;-78
2022/11/05 11:17:31;;;;;;;6.82;1.65;;;17.90;76.40;;;;;;5055139;28;20029;-76
2022/11/05 11:20:15;;;;;;;4.43;1.52;;;17.90;76.20;;;;;;5054816;28;20029;-78
2022/11/05 11:22:40;;;;;;;;;;;18.00;76.00;;;;;;5054210;28;20037;-78
2022/11/05 11:25:25;;;;;;;6.93;1.80;;;18.00;75.30;;;;;;5054859;28;19905;-78
2022/11/05 11:27:51;;;;;;;6.30;2.22;;;18.10;76.30;;;;;;5053270;28;20041;-79
2022/11/05 11:30:19;;;;;;;4.68;2.47;;;18.10;75.50;;;;;;5054675;28;20017;-79
2022/11/05 11:32:47;;;;;;;7.88;1.90;;;18.20;75.20;;;;;;5053538;28;20048;-79
2022/11/05 11:35:22;;;;;;;3.70;1.50;;;18.20;74.70;;;;;;5053510;28;20025;-78
2022/11/05 11:37:51;;;;;;;6.47;1.70;;;18.40;74.40;;;;;;5054755;28;20037;-77
2022/11/05 11:40:21;;;;;;;4.78;2.00;;;18.40;74.60;;;;;;5054648;28;20037;-79
2022/11/05 11:42:56;;;;;;;5.82;1.88;;;18.40;73.40;;;;;;5053168;28;20385;-77
2022/11/05 11:45:37;;;;;;;6.47;1.90;;;18.50;74.00;;;;;;5054963;28;20055;-78
2022/11/05 11:48:12;;;;;;;5.60;1.65;;;18.60;72.80;;;;;;5053165;28;20083;-78
2022/11/05 11:50:43;;;;;;;3.03;1.20;;;18.70;72.60;;;;;;5052968;28;20068;-78
2022/11/05 11:53:19;;;;;;;4.32;1.40;;;18.80;72.20;;;;;;5052872;28;20040;-76
2022/11/05 11:55:54;;;;;;;5.18;1.42;;;18.90;72.40;;;;;;5052706;28;20040;-80
2022/11/05 11:58:35;;;;;;;5.80;1.92;;;19.00;71.70;;;;;;5054056;28;20091;-79
2022/11/05 12:01:32;;;;;;;6.38;1.88;;;19.10;71.30;;;;;;5052704;28;20059;-78
2022/11/05 12:04:05;;;;;;;6.53;2.40;;;19.10;71.90;;;;;;5052357;28;20099;-79
2022/11/05 12:06:56;;;;;;;3.50;1.60;;;19.00;71.50;;;;;;5054145;28;20033;-78
2022/11/05 12:09:42;;;;;;;4.25;1.60;;;19.10;71.20;;;;;;5053793;28;20112;-78
2022/11/05 12:12:13;;;;;;;2.85;1.40;;;19.10;70.70;;;;;;5043070;28;20059;-78
2022/11/05 12:15:29;;;;;;;2.17;1.23;;;19.10;70.50;;;;;;5053711;28;20091;-77
2022/11/05 12:18:00;;;;;;;3.17;1.40;;;19.10;71.20;;;;;;4992221;28;20066;-78
2022/11/05 12:20:45;;;;;;;4.82;1.50;;;19.10;70.10;;;;;;4992085;28;20050;-76
2022/11/05 12:23:34;;;;;;;2.60;1.02;;;19.20;70.60;;;;;;5029508;28;20029;-79
2022/11/05 12:26:18;;;;;;;3.03;1.27;;;19.20;69.10;;;;;;5051993;28;20037;-77
2022/11/05 12:29:02;;;;;;;6.82;1.60;;;19.20;68.60;;;;;;5053342;28;20079;-78
2022/11/05 12:32:09;;;;;;;3.58;1.35;;;19.20;68.30;;;;;;5053524;28;20040;-77
2022/11/05 12:35:12;;;;;;;2.25;1.15;;;19.20;66.70;;;;;;5045373;28;20041;-78
2022/11/05 12:37:37;;;;;;;2.85;1.20;;;19.30;66.70;;;;;;5053806;28;20029;-79
2022/11/05 12:40:29;;;;;;;3.83;1.40;;;19.30;66.90;;;;;;5053450;28;20047;-78
2022/11/05 12:43:18;;;;;;;3.38;1.13;;;19.30;66.80;;;;;;5015792;28;20037;-78
2022/11/05 12:45:49;;;;;;;2.10;1.08;;;19.30;66.80;;;;;;5053336;28;20104;-79
2022/11/05 12:48:15;;;;;;;3.95;1.33;;;19.30;66.60;;;;;;5053570;28;20029;-79
2022/11/05 12:50:48;;;;;;;1.80;1.05;;;19.30;66.70;;;;;;5053416;28;20535;-77
2022/11/05 12:53:47;;;;;;;4.88;1.20;;;19.30;66.40;;;;;;5053248;28;20037;-78
2022/11/05 12:56:42;;;;;;;3.60;1.08;;;19.30;65.60;;;;;;5054535;28;20056;-78
2022/11/05 12:59:23;;;;;;;3.15;1.13;;;19.30;64.80;;;;;;5050243;28;20429;-76
2022/11/05 13:01:56;;;;;;;3.20;1.00;;;19.30;65.70;;;;;;5042407;28;20528;-76
2022/11/05 13:04:49;;;;;;;2.88;1.20;;;19.30;65.60;;;;;;5044399;28;20076;-78
2022/11/05 13:07:22;;;;;;;4.40;1.40;;;19.20;65.50;;;;;;5036603;28;20081;-78
2022/11/05 13:09:57;;;;;;;4.30;1.25;;;19.20;65.50;;;;;;5034294;28;20034;-78
2022/11/05 13:12:26;;;;;;;4.38;1.42;;;19.20;65.40;;;;;;5034007;28;20109;-74
2022/11/05 13:14:52;;;;;;;6.20;1.40;;;19.30;65.70;;;;;;5033408;28;20421;-76
2022/11/05 13:17:24;;;;;;;3.60;1.30;;;19.30;65.40;;;;;;5039022;28;20034;-72
2022/11/05 13:20:05;;;;;;;4.70;1.03;;;19.30;64.80;;;;;;5041349;28;20050;-77
2022/11/05 13:22:59;;;;;;;6.03;1.10;;;19.40;64.50;;;;;;5056558;28;20061;-79
2022/11/05 13:25:32;;;;;;;6.45;1.08;;;19.40;62.10;;;;;;5057226;28;20037;-79
2022/11/05 13:28:11;;;;;;;2.38;1.02;;;19.30;62.50;;;;;;5060753;28;20116;-78
2022/11/05 13:30:42;;;;;;;4.20;1.20;;;19.30;62.30;;;;;;5053327;28;20033;-84
2022/11/05 13:33:39;;;;;;;1.95;0.77;;;19.30;62.50;;;;;;5053120;28;20033;-77
2022/11/05 13:39:12;;;;;;;2.17;0.80;;;19.20;61.60;;;;;;5053128;28;20043;-82
2022/11/05 13:41:52;;;;;;;1.65;0.70;;;19.20;61.40;;;;;;5052843;28;20510;-78
2022/11/05 13:44:48;;;;;;;2.80;1.20;;;19.20;61.80;;;;;;5052409;28;20040;-78
2022/11/05 13:47:35;;;;;;;2.22;0.73;;;19.20;61.30;;;;;;5053947;28;20033;-79
2022/11/05 13:50:25;;;;;;;1.73;0.82;;;19.20;60.90;;;;;;5055045;28;20060;-82
2022/11/05 13:52:56;;;;;;;2.92;0.90;;;19.20;61.20;;;;;;5053996;28;20037;-79
2022/11/05 13:55:44;;;;;;;5.63;0.90;;;19.20;60.70;;;;;;5053967;28;20099;-82
2022/11/05 13:58:34;;;;;;;2.88;0.93;;;19.20;60.50;;;;;;5053167;28;20112;-81
2022/11/05 14:01:21;;;;;;;6.55;1.40;;;19.20;60.50;;;;;;5051629;28;20044;-82
2022/11/05 14:03:49;;;;;;;2.55;1.10;;;19.20;60.90;;;;;;5052877;28;20032;-80
2022/11/05 14:06:40;;;;;;;4.28;0.80;;;19.10;60.20;;;;;;5054689;28;20037;-85
2022/11/05 14:09:09;;;;;;;3.60;0.95;;;19.20;60.20;;;;;;5047945;28;20064;-80
2022/11/05 14:11:39;;;;;;;4.80;1.00;;;19.20;60.00;;;;;;5041952;28;20066;-81
2022/11/05 14:14:08;;;;;;;3.70;0.93;;;19.20;60.20;;;;;;5054433;28;20425;-81
2022/11/05 14:17:14;;;;;;;3.35;1.05;;;19.10;59.90;;;;;;5039272;28;20042;-81
2022/11/05 14:20:21;;;;;;;3.33;1.15;;;19.10;59.50;;;;;;4993720;28;20046;-82
2022/11/05 14:22:47;;;;;;;1.55;0.70;;;19.10;60.00;;;;;;4989924;28;20039;-80
2022/11/05 14:25:19;;;;;;;6.70;1.00;;;19.10;59.70;;;;;;5022134;28;20076;-82
2022/11/05 14:27:48;;;;;;;3.35;0.90;;;19.10;60.00;;;;;;5048380;28;20041;-84
2022/11/05 14:30:38;;;;;;;2.90;0.90;;;19.00;59.80;;;;;;5056252;28;20091;-82
2022/11/05 14:33:28;;;;;;;3.03;0.90;;;19.00;59.60;;;;;;5055069;28;20508;-84
2022/11/05 14:36:19;;;;;;;1.92;0.80;;;18.90;59.60;;;;;;5056266;28;20489;-82
2022/11/05 14:38:58;;;;;;;3.13;0.90;;;18.90;60.20;;;;;;5055534;28;20108;-83
2022/11/05 14:41:24;;;;;;;5.25;1.00;;;18.80;60.00;;;;;;5053013;28;20033;-86
2022/11/05 14:44:04;;;;;;;3.33;1.00;;;18.70;60.00;;;;;;5054356;28;20041;-71
2022/11/05 14:46:45;;;;;;;2.60;0.85;;;18.60;59.40;;;;;;5054354;28;20033;-72
2022/11/05 14:49:23;;;;;;;7.50;1.02;;;18.60;60.30;;;;;;5054220;28;20040;-72
2022/11/05 14:51:52;;;;;;;2.75;0.80;;;18.50;59.40;;;;;;5045894;28;20070;-71
2022/11/05 14:54:44;;;;;;;3.45;0.90;;;18.40;60.00;;;;;;5035385;28;20113;-70
2022/11/05 14:57:34;;;;;;;5.97;0.95;;;18.40;60.30;;;;;;5030969;28;20507;-71
2022/11/05 15:00:00;;;;;;;3.85;0.90;;;18.30;60.00;;;;;;5035289;28;20084;-72
2022/11/05 15:02:32;;;;;;;3.35;0.90;;;18.30;60.30;;;;;;5034085;28;20037;-71
2022/11/05 15:05:34;;;;;;;7.50;1.35;;;18.20;60.50;;;;;;5035154;28;20029;-71
2022/11/05 15:08:26;;;;;;;3.97;1.05;;;18.20;61.20;;;;;;5040439;28;20076;-71
2022/11/05 15:11:16;;;;;;;2.40;0.65;;;18.20;60.80;;;;;;5033572;28;20034;-71
2022/11/05 15:13:53;;;;;;;5.93;1.13;;;18.20;61.00;;;;;;5047094;28;20504;-71
2022/11/05 15:16:29;;;;;;;2.72;1.00;;;18.30;61.20;;;;;;5053252;28;20044;-70
2022/11/05 15:18:56;;;;;;;4.63;1.20;;;18.30;61.30;;;;;;5053460;28;20068;-70
2022/11/05 15:21:24;;;;;;;2.67;1.10;;;18.30;61.40;;;;;;5054835;28;20052;-71
2022/11/05 15:23:55;;;;;;;3.47;1.00;;;18.30;61.90;;;;;;5054462;28;20025;-69
2022/11/05 15:26:20;;;;;;;3.05;1.00;;;18.20;62.10;;;;;;5053271;28;20037;-70
2022/11/05 15:28:49;;;;;;;2.95;1.00;;;18.20;62.70;;;;;;5053323;28;20052;-70
2022/11/05 15:31:15;;;;;;;4.43;1.30;;;18.10;63.20;;;;;;5054495;28;20029;-71
2022/11/05 15:33:42;;;;;;;6.63;1.33;;;18.10;63.80;;;;;;5054608;28;20487;-69
2022/11/05 15:36:29;;;;;;;4.05;1.25;;;18.00;64.20;;;;;;5052778;28;20033;-71
2022/11/05 15:38:56;;;;;;;3.70;1.00;;;17.90;64.60;;;;;;5053479;28;20531;-72
2022/11/05 15:41:32;;;;;;;8.20;1.48;;;17.80;64.90;;;;;;5054430;28;20080;-71
2022/11/05 15:43:58;;;;;;;5.47;1.00;;;17.70;64.90;;;;;;5053343;28;20037;-70
2022/11/05 15:46:27;;;;;;;6.72;1.10;;;17.70;65.20;;;;;;5053380;28;20033;-70
2022/11/05 15:49:05;;;;;;;3.67;1.13;;;17.60;65.70;;;;;;5052908;28;20033;-70
2022/11/05 15:51:32;;;;;;;13.50;1.45;;;17.50;66.00;;;;;;5053253;28;20456;-71
2022/11/05 15:54:02;;;;;;;5.05;1.20;;;17.40;66.40;;;;;;5054240;28;20028;-71
2022/11/05 15:56:34;;;;;;;4.45;1.38;;;17.30;67.10;;;;;;5054388;28;20033;-72
2022/11/05 15:59:06;;;;;;;3.22;1.00;;;17.20;66.90;;;;;;5052770;28;20037;-69
2022/11/05 16:01:44;;;;;;;4.38;1.30;;;17.10;67.10;;;;;;5054036;28;20041;-71
2022/11/05 16:04:36;;;;;;;5.30;1.38;;;17.00;66.80;;;;;;5052759;28;20040;-70
2022/11/05 16:07:10;;;;;;;6.18;0.90;;;17.00;67.40;;;;;;5035867;28;20075;-70
2022/11/05 16:09:39;;;;;;;6.25;1.35;;;16.90;67.50;;;;;;5033802;28;20073;-73
2022/11/05 16:12:11;;;;;;;7.40;1.75;;;16.80;67.50;;;;;;5032722;28;20528;-72
2022/11/05 16:14:37;;;;;;;7.35;1.42;;;16.80;67.70;;;;;;5033848;28;20037;-72
2022/11/05 16:17:25;;;;;;;3.42;1.25;;;16.70;67.60;;;;;;5034187;28;20402;-73
2022/11/05 16:19:51;;;;;;;6.28;1.20;;;16.60;67.50;;;;;;5032335;28;20119;-72
2022/11/05 16:22:18;;;;;;;3.70;1.10;;;16.60;67.70;;;;;;5032586;28;20042;-74
2022/11/05 16:24:44;;;;;;;4.18;1.15;;;16.50;67.80;;;;;;5032215;28;20033;-73
2022/11/05 16:27:17;;;;;;;5.55;1.17;;;16.50;67.80;;;;;;5034148;28;20032;-73
2022/11/05 16:29:52;;;;;;;4.88;1.38;;;16.40;67.80;;;;;;5051318;28;20053;-73
2022/11/05 16:32:22;;;;;;;5.32;1.20;;;16.40;67.80;;;;;;5053393;28;20025;-73
2022/11/05 16:34:50;;;;;;;6.53;1.83;;;16.30;67.80;;;;;;5053531;28;20113;-73
2022/11/05 16:37:21;;;;;;;6.13;2.00;;;16.30;67.90;;;;;;5053608;28;20405;-73
2022/11/05 16:39:47;;;;;;;5.55;1.60;;;16.30;67.80;;;;;;5035560;28;20064;-70
2022/11/05 16:42:22;;;;;;;8.57;2.22;;;16.20;67.80;;;;;;5035379;28;20072;-73
2022/11/05 16:44:54;;;;;;;9.07;1.35;;;16.20;67.80;;;;;;5053357;28;20029;-72
2022/11/05 16:47:21;;;;;;;6.88;1.73;;;16.10;67.60;;;;;;5035338;28;20064;-73
2022/11/05 16:49:47;;;;;;;7.80;1.85;;;16.10;67.50;;;;;;5053286;28;20029;-73
2022/11/05 16:52:13;;;;;;;4.22;1.30;;;16.10;67.20;;;;;;5035109;28;20416;-72
2022/11/05 16:54:39;;;;;;;5.90;1.42;;;16.10;67.00;;;;;;5053170;28;20518;-71
2022/11/05 16:57:11;;;;;;;4.82;1.15;;;16.00;66.60;;;;;;5053136;28;20232;-74
2022/11/05 16:59:36;;;;;;;5.25;1.35;;;16.00;66.20;;;;;;5053003;28;20115;-72
2022/11/05 17:02:02;;;;;;;6.00;1.13;;;16.00;66.50;;;;;;5034980;28;20476;-72
2022/11/05 17:04:28;;;;;;;3.95;1.20;;;15.90;66.50;;;;;;5035063;28;20033;-73
2022/11/05 17:06:54;;;;;;;5.03;1.13;;;15.90;66.50;;;;;;5035025;28;20136;-73
2022/11/05 17:09:19;;;;;;;4.68;1.20;;;15.90;66.40;;;;;;5053151;28;20048;-72
2022/11/05 17:11:45;;;;;;;4.68;1.20;;;15.80;66.30;;;;;;5052886;28;20037;-73
2022/11/05 17:14:12;;;;;;;5.15;1.50;;;15.80;66.40;;;;;;5035010;28;20036;-72
2022/11/05 17:16:39;;;;;;;3.67;1.42;;;15.70;66.30;;;;;;5052878;28;20519;-71
2022/11/05 17:19:07;;;;;;;4.85;1.50;;;15.70;66.10;;;;;;5035000;28;20029;-73
2022/11/05 17:21:33;;;;;;;6.22;1.15;;;15.70;66.20;;;;;;5034842;28;20037;-71
2022/11/05 17:23:59;;;;;;;6.18;1.73;;;15.70;66.20;;;;;;5052859;28;20099;-72
2022/11/05 17:26:24;;;;;;;6.63;1.15;;;15.70;66.10;;;;;;5052726;28;20108;-73
2022/11/05 17:28:50;;;;;;;3.92;1.08;;;15.60;66.00;;;;;;5052432;28;20049;-73
2022/11/05 17:31:16;;;;;;;4.10;1.20;;;15.60;65.90;;;;;;5052774;28;20108;-72
2022/11/05 17:33:42;;;;;;;5.75;1.25;;;15.60;65.70;;;;;;5034702;28;20041;-72
2022/11/05 17:36:12;;;;;;;4.50;1.30;;;15.60;65.70;;;;;;5034633;28;20197;-72
2022/11/05 17:38:38;;;;;;;6.47;1.20;;;15.50;65.60;;;;;;5034652;28;20029;-74
2022/11/05 17:41:16;;;;;;;4.90;1.30;;;15.50;65.70;;;;;;5052472;28;20048;-72
2022/11/05 17:43:42;;;;;;;3.92;1.17;;;15.50;65.50;;;;;;5034637;28;20546;-73
2022/11/05 17:46:11;;;;;;;4.97;1.15;;;15.50;65.40;;;;;;5034758;28;20452;-73
2022/11/05 17:48:37;;;;;;;4.00;1.10;;;15.50;65.70;;;;;;5034539;28;20611;-73
2022/11/05 17:51:03;;;;;;;3.25;1.10;;;15.40;65.30;;;;;;5052416;28;20477;-73
2022/11/05 17:53:30;;;;;;;6.15;1.17;;;15.40;65.40;;;;;;5034432;28;20530;-72
2022/11/05 17:55:55;;;;;;;5.38;1.50;;;15.40;65.30;;;;;;5034673;28;20056;-72
2022/11/05 17:58:21;;;;;;;5.40;1.27;;;15.40;65.30;;;;;;5034554;28;20037;-72
2022/11/05 18:00:47;;;;;;;4.70;1.30;;;15.40;65.20;;;;;;5035412;28;20055;-72
2022/11/05 18:03:13;;;;;;;4.32;1.13;;;15.30;64.90;;;;;;5056507;28;20396;-73
2022/11/05 18:05:40;;;;;;;5.22;1.38;;;15.30;65.00;;;;;;5038509;28;20087;-72
2022/11/05 18:08:07;;;;;;;3.60;1.40;;;15.30;64.60;;;;;;5038389;28;20033;-72
2022/11/05 18:10:35;;;;;;;7.18;2.00;;;15.30;64.90;;;;;;5056170;28;20056;-72
2022/11/05 18:13:01;;;;;;;4.40;1.23;;;15.30;64.90;;;;;;5055983;28;20471;-72
2022/11/05 18:15:27;;;;;;;4.20;1.40;;;15.30;64.80;;;;;;5038243;28;20136;-72
2022/11/05 18:17:52;;;;;;;4.47;1.50;;;15.30;64.80;;;;;;5037985;28;20037;-72
2022/11/05 18:20:18;;;;;;;4.05;1.35;;;15.20;64.60;;;;;;5038060;28;20033;-72
2022/11/05 18:22:45;;;;;;;5.38;1.60;;;15.20;64.80;;;;;;5037996;28;20063;-72
2022/11/05 18:25:12;;;;;;;5.45;1.25;;;15.20;64.30;;;;;;5037869;28;20031;-72
2022/11/05 18:27:39;;;;;;;4.75;1.75;;;15.20;64.30;;;;;;5056142;28;20040;-72
2022/11/05 18:30:05;;;;;;;5.28;1.08;;;15.20;64.50;;;;;;5037772;28;20025;-72
2022/11/05 18:32:31;;;;;;;6.82;1.60;;;15.20;64.60;;;;;;5037775;28;20489;-72
2022/11/05 18:34:57;;;;;;;8.90;2.10;;;15.20;64.20;;;;;;5055893;28;20044;-73
2022/11/05 18:37:22;;;;;;;5.22;1.40;;;15.20;64.40;;;;;;5055706;28;20060;-73
2022/11/05 18:39:52;;;;;;;6.03;1.30;;;15.10;64.30;;;;;;5037692;28;20029;-72
2022/11/05 18:42:19;;;;;;;7.00;1.40;;;15.20;64.00;;;;;;5055383;28;20044;-71
2022/11/05 18:44:45;;;;;;;4.78;1.35;;;15.10;63.80;;;;;;5055556;28;20033;-73
2022/11/05 18:47:12;;;;;;;5.15;1.35;;;15.10;63.70;;;;;;5037572;28;20029;-73
2022/11/05 18:49:38;;;;;;;5.93;1.70;;;15.10;63.40;;;;;;5037700;28;20025;-71
2022/11/05 18:52:04;;;;;;;4.32;1.50;;;15.10;63.50;;;;;;5055292;28;20040;-73
2022/11/05 18:54:29;;;;;;;6.55;1.77;;;15.10;63.20;;;;;;5037556;28;20029;-74
2022/11/05 18:56:55;;;;;;;4.60;1.55;;;15.10;63.30;;;;;;5055395;28;20040;-72
2022/11/05 18:59:21;;;;;;;7.03;1.60;;;15.10;62.90;;;;;;5037398;28;20125;-73
2022/11/05 19:01:47;;;;;;;9.30;1.67;;;15.10;63.10;;;;;;5047878;28;20052;-72
2022/11/05 19:04:13;;;;;;;6.85;2.10;;;15.10;66.60;;;;;;5035187;28;20034;-78
2022/11/05 19:06:39;;;;;;;5.90;1.58;;;15.10;62.60;;;;;;5019902;28;20042;-79
2022/11/05 19:09:07;;;;;;;5.10;1.38;;;15.10;66.10;;;;;;5017260;28;20030;-75
2022/11/05 19:11:33;;;;;;;7.85;1.60;;;15.10;68.40;;;;;;5034591;28;20036;-74
2022/11/05 19:13:59;;;;;;;6.82;1.48;;;15.10;62.40;;;;;;5034386;28;20041;-73
2022/11/05 19:16:28;;;;;;;4.15;1.60;;;15.10;62.40;;;;;;5017399;28;20040;-77
2022/11/05 19:18:57;;;;;;;10.40;2.90;;;15.10;62.00;;;;;;5028908;28;20414;-75
2022/11/05 19:21:24;;;;;;;10.15;2.15;;;15.10;62.00;;;;;;5037055;28;20045;-79
2022/11/05 19:23:51;;;;;;;7.93;1.85;;;15.10;61.80;;;;;;5036950;28;20036;-76
2022/11/05 19:26:20;;;;;;;7.43;1.95;;;15.10;66.30;;;;;;5054974;28;20132;-77
2022/11/05 19:28:46;;;;;;;6.63;1.85;;;15.00;61.60;;;;;;5036554;28;20056;-77
2022/11/05 19:31:15;;;;;;;5.18;1.58;;;15.00;61.60;;;;;;5036630;28;20059;-77
2022/11/05 19:33:41;;;;;;;5.35;1.52;;;15.00;61.50;;;;;;5054535;28;20040;-78
2022/11/05 19:36:08;;;;;;;6.60;1.70;;;15.00;61.90;;;;;;5055127;28;20040;-75
2022/11/05 19:38:35;;;;;;;4.70;1.40;;;15.00;61.50;;;;;;5054730;28;20071;-77
2022/11/05 19:41:06;;;;;;;7.30;1.65;;;15.00;61.50;;;;;;5036331;28;20041;-74
2022/11/05 19:43:36;;;;;;;6.95;1.60;;;15.00;62.20;;;;;;5036626;28;20044;-83
2022/11/05 19:46:07;;;;;;;6.47;1.90;;;15.00;61.30;;;;;;5054915;28;20094;-79
2022/11/05 19:48:33;;;;;;;7.95;2.08;;;15.00;60.80;;;;;;5055270;28;20090;-77
2022/11/05 19:50:59;;;;;;;4.03;1.30;;;15.00;60.80;;;;;;5037450;28;20029;-75
2022/11/05 19:53:25;;;;;;;5.25;1.55;;;15.00;60.70;;;;;;5037114;28;20323;-76
2022/11/05 19:55:51;;;;;;;6.05;1.63;;;15.00;60.70;;;;;;5037407;28;20048;-78
2022/11/05 19:58:16;;;;;;;4.97;1.60;;;15.00;60.50;;;;;;5054960;28;20415;-78
2022/11/05 20:00:42;;;;;;;6.43;1.88;;;15.00;60.50;;;;;;5037087;28;20072;-75
2022/11/05 20:03:10;;;;;;;8.52;1.55;;;15.00;60.70;;;;;;5054895;28;20114;-75
2022/11/05 20:05:36;;;;;;;5.13;1.58;;;15.00;60.60;;;;;;5054527;28;20067;-75
2022/11/05 20:08:02;;;;;;;4.57;1.67;;;15.00;60.60;;;;;;5054436;28;20040;-74
2022/11/05 20:10:28;;;;;;;3.03;1.20;;;15.00;60.50;;;;;;5036348;28;20037;-74
2022/11/05 20:12:54;;;;;;;5.95;1.70;;;15.00;60.60;;;;;;5036535;28;20033;-73
2022/11/05 20:15:19;;;;;;;2.90;1.20;;;15.00;60.40;;;;;;5036107;28;20539;-76
2022/11/05 20:17:50;;;;;;;4.15;1.40;;;15.00;60.20;;;;;;5036205;28;20120;-75
2022/11/05 20:20:16;;;;;;;6.03;1.48;;;15.00;60.20;;;;;;5054525;28;20104;-75
2022/11/05 20:22:42;;;;;;;3.08;1.20;;;15.00;60.00;;;;;;5053747;28;20536;-74
2022/11/05 20:25:08;;;;;;;6.75;1.65;;;15.00;60.00;;;;;;5053566;28;20035;-78
2022/11/05 20:27:34;;;;;;;6.90;1.70;;;15.00;60.20;;;;;;5053716;28;20029;-79
2022/11/05 20:30:00;;;;;;;5.20;2.05;;;15.00;60.30;;;;;;5053597;28;20119;-74
2022/11/05 20:32:26;;;;;;;8.13;1.60;;;14.90;60.30;;;;;;5052448;28;20398;-78
2022/11/05 20:34:52;;;;;;;7.85;1.85;;;15.00;60.40;;;;;;5052477;28;20040;-81
2022/11/05 20:37:18;;;;;;;6.88;2.00;;;15.00;60.30;;;;;;5052271;28;20072;-81
2022/11/05 20:39:45;;;;;;;6.07;1.52;;;15.00;60.40;;;;;;5052336;28;20029;-79
2022/11/05 20:42:11;;;;;;;9.68;1.55;;;15.00;60.60;;;;;;5052201;28;20052;-80
2022/11/05 20:44:37;;;;;;;6.78;1.58;;;14.90;60.50;;;;;;5052331;28;20103;-80
2022/11/05 20:47:03;;;;;;;5.93;1.70;;;14.90;60.60;;;;;;5052417;28;20485;-79
2022/11/05 20:49:28;;;;;;;5.85;1.50;;;14.90;60.70;;;;;;5052664;28;20398;-77
2022/11/05 20:51:54;;;;;;;5.38;2.00;;;14.90;60.80;;;;;;5053155;28;20048;-79
2022/11/05 20:54:20;;;;;;;5.28;1.48;;;14.90;60.90;;;;;;5035273;28;20485;-80
2022/11/05 20:56:46;;;;;;;3.53;1.42;;;14.90;60.80;;;;;;5035729;28;20032;-77
2022/11/05 20:59:12;;;;;;;6.13;1.50;;;14.90;60.90;;;;;;5053277;28;20109;-75
2022/11/05 21:01:37;;;;;;;5.80;1.75;;;14.90;60.70;;;;;;5053127;28;20076;-77
2022/11/05 21:04:03;;;;;;;4.28;1.58;;;14.90;60.80;;;;;;5053932;28;20400;-80
2022/11/05 21:06:30;;;;;;;3.00;1.10;;;14.90;60.80;;;;;;5054093;28;20037;-78
2022/11/05 21:08:57;;;;;;;9.45;1.80;;;14.90;60.90;;;;;;5035808;28;20059;-78
2022/11/05 21:11:23;;;;;;;7.22;2.28;;;14.90;60.90;;;;;;5035785;28;20123;-78
2022/11/05 21:13:49;;;;;;;5.05;1.30;;;14.80;60.80;;;;;;5035057;28;20029;-76
2022/11/05 21:16:17;;;;;;;6.05;1.88;;;14.80;60.90;;;;;;5034974;28;20517;-77
2022/11/05 21:18:43;;;;;;;4.38;1.70;;;14.80;60.80;;;;;;5034940;28;20033;-78
2022/11/05 21:21:12;;;;;;;3.28;1.50;;;14.80;61.00;;;;;;5053080;28;20072;-77
2022/11/05 21:23:38;;;;;;;6.65;1.92;;;14.80;61.20;;;;;;5035280;28;20033;-78
2022/11/05 21:26:05;;;;;;;5.35;1.60;;;14.80;61.30;;;;;;5053034;28;20039;-79
2022/11/05 21:28:31;;;;;;;6.18;1.60;;;14.80;61.10;;;;;;5052547;28;20547;-77
2022/11/05 21:31:02;;;;;;;4.72;1.63;;;14.80;61.00;;;;;;5034988;28;20040;-77
2022/11/05 21:33:28;;;;;;;5.25;1.80;;;14.70;61.00;;;;;;5052507;28;20108;-78
2022/11/05 21:35:53;;;;;;;6.32;1.60;;;14.70;60.80;;;;;;5033921;28;20512;-77
2022/11/05 21:38:19;;;;;;;4.57;1.40;;;14.70;60.70;;;;;;5052787;28;20029;-77
2022/11/05 21:40:45;;;;;;;4.80;1.50;;;14.70;60.70;;;;;;5034905;28;20178;-78
2022/11/05 21:43:12;;;;;;;5.30;1.42;;;14.70;60.50;;;;;;5035036;28;20060;-79
2022/11/05 21:45:39;;;;;;;5.45;1.60;;;14.70;60.50;;;;;;5052631;28;20057;-76
2022/11/05 21:48:05;;;;;;;4.57;1.60;;;14.70;60.60;;;;;;5052771;28;20036;-76
2022/11/05 22:01:43;;;;;;;3.85;1.48;;;14.70;60.30;;;;;;5031843;28;20045;-76
2022/11/05 22:04:09;;;;;;;7.50;2.22;;;14.70;60.30;;;;;;5035039;28;20036;-77
2022/11/05 22:06:35;;;;;;;5.07;1.60;;;14.60;60.40;;;;;;5035047;28;20458;-77
2022/11/05 22:09:00;;;;;;;4.63;1.52;;;14.60;60.20;;;;;;5034954;28;20433;-76
2022/11/05 22:11:26;;;;;;;5.03;1.33;;;14.60;60.20;;;;;;5035054;28;20047;-75
2022/11/05 22:13:52;;;;;;;5.38;1.42;;;14.60;60.20;;;;;;5034815;28;20143;-76
2022/11/05 22:16:18;;;;;;;2.88;1.13;;;14.60;60.00;;;;;;5026084;28;20033;-76
2022/11/05 22:18:44;;;;;;;4.53;1.08;;;14.60;60.00;;;;;;5014853;28;20059;-77
2022/11/05 22:21:16;;;;;;;4.25;1.20;;;14.60;60.00;;;;;;5014909;28;20052;-75
2022/11/05 22:23:42;;;;;;;4.28;1.33;;;14.60;60.20;;;;;;5014561;28;20030;-78
2022/11/05 22:26:07;;;;;;;7.15;1.58;;;14.60;60.10;;;;;;5032263;28;20030;-75
2022/11/05 22:28:33;;;;;;;6.38;1.67;;;14.60;60.20;;;;;;5027302;28;20508;-75
2022/11/05 22:30:59;;;;;;;3.03;1.20;;;14.60;60.00;;;;;;5052371;28;20070;-77
2022/11/05 22:33:25;;;;;;;5.40;1.60;;;14.50;60.40;;;;;;5050933;28;20034;-75
2022/11/05 22:35:51;;;;;;;2.88;1.05;;;14.60;60.00;;;;;;5052122;28;20112;-75
2022/11/05 22:38:17;;;;;;;7.68;1.38;;;14.60;60.00;;;;;;5051968;28;20064;-74
2022/11/05 22:40:42;;;;;;;4.28;1.70;;;14.50;60.00;;;;;;5051818;28;20052;-75
2022/11/05 22:43:08;;;;;;;5.40;1.70;;;14.50;59.90;;;;;;5050779;28;20032;-75
2022/11/05 22:45:35;;;;;;;7.13;1.38;;;14.50;59.80;;;;;;5050691;28;20503;-76
2022/11/05 22:48:00;;;;;;;2.70;1.00;;;14.50;59.90;;;;;;5055341;28;20047;-73
2022/11/05 22:50:26;;;;;;;5.82;1.20;;;14.50;60.00;;;;;;5055870;28;20076;-76
2022/11/05 22:52:52;;;;;;;3.95;1.20;;;14.50;59.90;;;;;;5055674;28;20032;-76
2022/11/05 22:55:18;;;;;;;4.28;1.17;;;14.50;60.00;;;;;;5055773;28;20032;-75